createdAt,value
2019-06-07T00:00:40.112Z,0.00
2019-06-07T00:01:35.735Z,0.00
2019-06-07T00:02:34.739Z,0.00
2019-06-07T00:03:34.727Z,0.00
2019-06-07T00:04:34.667Z,0.00
2019-06-07T00:05:34.699Z,0.00
2019-06-07T00:06:35.016Z,0.00
2019-06-07T00:07:34.679Z,0.00
2019-06-07T00:08:34.658Z,0.00
2019-06-07T00:09:34.667Z,0.00
2019-06-07T00:10:36.987Z,0.00
2019-06-07T00:11:34.641Z,0.00
2019-06-07T00:12:34.657Z,0.00
2019-06-07T00:13:34.596Z,0.00
2019-06-07T00:14:34.599Z,0.00
2019-06-07T00:15:34.590Z,0.00
2019-06-07T00:16:34.593Z,0.00
2019-06-07T00:17:34.586Z,0.00
2019-06-07T00:18:34.636Z,0.00
2019-06-07T00:19:34.558Z,0.00
2019-06-07T00:20:34.498Z,0.00
2019-06-07T00:22:13.718Z,0.00
2019-06-07T00:22:35.520Z,0.00
2019-06-07T00:23:34.504Z,0.00
2019-06-07T00:24:34.624Z,0.00
2019-06-07T00:25:34.446Z,0.00
2019-06-07T00:26:56.636Z,0.00
2019-06-07T00:27:35.475Z,0.00
2019-06-07T00:28:34.449Z,0.00
2019-06-07T00:29:34.408Z,0.00
2019-06-07T00:30:46.045Z,0.00
2019-06-07T00:31:35.431Z,0.00
2019-06-07T00:32:34.407Z,0.00
2019-06-07T00:33:34.407Z,0.00
2019-06-07T00:34:34.388Z,0.00
2019-06-07T00:35:34.340Z,0.00
2019-06-07T00:36:34.437Z,0.00
2019-06-07T00:37:34.375Z,0.00
2019-06-07T00:38:34.311Z,0.00
2019-06-07T00:39:34.348Z,0.00
2019-06-07T00:40:34.311Z,0.00
2019-06-07T00:41:34.337Z,0.00
2019-06-07T00:42:34.378Z,0.00
2019-06-07T00:43:34.290Z,0.00
2019-06-07T00:44:34.268Z,0.00
2019-06-07T00:45:34.289Z,0.00
2019-06-07T00:46:34.221Z,0.00
2019-06-07T00:47:34.266Z,0.00
2019-06-07T00:48:34.331Z,0.00
2019-06-07T00:49:40.988Z,0.00
2019-06-07T00:50:35.182Z,0.00
2019-06-07T00:51:49.614Z,0.00
2019-06-07T00:53:13.213Z,0.00
2019-06-07T00:53:35.280Z,0.00
2019-06-07T00:54:34.167Z,0.00
2019-06-07T00:55:34.132Z,0.00
2019-06-07T00:56:34.155Z,0.00
2019-06-07T00:57:34.131Z,0.00
2019-06-07T00:58:34.120Z,0.00
2019-06-07T00:59:34.182Z,0.00
2019-06-07T01:00:34.131Z,0.00
2019-06-07T01:01:34.120Z,0.00
2019-06-07T01:02:34.061Z,0.00
2019-06-07T01:03:34.098Z,0.00
2019-06-07T01:04:34.080Z,0.00
2019-06-07T01:05:34.129Z,0.00
2019-06-07T01:06:34.051Z,0.00
2019-06-07T01:07:34.052Z,0.00
2019-06-07T01:08:34.031Z,0.00
2019-06-07T01:09:34.017Z,0.00
2019-06-07T01:10:52.346Z,0.00
2019-06-07T01:11:35.041Z,0.00
2019-06-07T01:12:34.003Z,0.00
2019-06-07T01:13:33.943Z,0.00
2019-06-07T01:14:33.979Z,0.00
2019-06-07T01:15:33.961Z,0.00
2019-06-07T01:16:55.342Z,0.00
2019-06-07T01:17:43.632Z,0.00
2019-06-07T01:18:39.122Z,0.00
2019-06-07T01:19:34.912Z,0.00
2019-06-07T01:20:33.869Z,0.00
2019-06-07T01:21:33.895Z,0.00
2019-06-07T01:22:33.869Z,0.00
2019-06-07T01:24:04.981Z,0.00
2019-06-07T01:24:34.822Z,0.00
2019-06-07T01:25:33.847Z,0.00
2019-06-07T01:26:33.853Z,0.00
2019-06-07T01:27:33.796Z,0.00
2019-06-07T01:28:33.821Z,0.00
2019-06-07T01:29:33.964Z,0.00
2019-06-07T01:30:33.784Z,0.00
2019-06-07T01:31:33.748Z,0.00
2019-06-07T01:32:33.785Z,0.00
2019-06-07T01:33:50.370Z,0.00
2019-06-07T01:34:34.843Z,0.00
2019-06-07T01:35:33.734Z,0.00
2019-06-07T01:36:33.695Z,0.00
2019-06-07T01:37:33.735Z,0.00
2019-06-07T01:38:33.677Z,0.00
2019-06-07T01:39:33.673Z,0.00
2019-06-07T01:40:33.784Z,0.00
2019-06-07T01:41:33.675Z,0.00
2019-06-07T01:42:33.657Z,0.00
2019-06-07T01:43:33.812Z,0.00
2019-06-07T01:44:33.635Z,0.00
2019-06-07T01:45:33.625Z,0.00
2019-06-07T01:46:33.715Z,0.00
2019-06-07T01:47:33.607Z,0.00
2019-06-07T01:48:48.975Z,0.00
2019-06-07T01:49:34.558Z,0.00
2019-06-07T01:50:33.590Z,0.00
2019-06-07T01:51:33.678Z,0.00
2019-06-07T01:52:33.614Z,0.00
2019-06-07T01:53:33.556Z,0.00
2019-06-07T01:54:57.282Z,0.00
2019-06-07T01:55:34.559Z,0.00
2019-06-07T01:56:33.535Z,0.00
2019-06-07T01:57:45.688Z,0.00
2019-06-07T01:58:34.623Z,0.00
2019-06-07T01:59:33.498Z,0.00
2019-06-07T02:00:33.477Z,0.00
2019-06-07T02:01:35.188Z,0.00
2019-06-07T02:02:33.441Z,0.00
2019-06-07T02:03:33.729Z,0.00
2019-06-07T02:04:33.829Z,0.00
2019-06-07T02:05:33.431Z,0.00
2019-06-07T02:06:33.439Z,0.00
2019-06-07T02:07:33.462Z,0.00
2019-06-07T02:08:34.347Z,0.00
2019-06-07T02:09:33.388Z,0.00
2019-06-07T02:10:33.866Z,0.00
2019-06-07T02:11:33.619Z,0.00
2019-06-07T02:12:42.507Z,0.00
2019-06-07T02:13:34.349Z,0.00
2019-06-07T02:14:34.001Z,0.00
2019-06-07T02:15:36.658Z,0.00
2019-06-07T02:16:33.398Z,0.00
2019-06-07T02:17:33.383Z,0.00
2019-06-07T02:18:34.974Z,0.00
2019-06-07T02:19:33.642Z,0.00
2019-06-07T02:20:34.508Z,0.00
2019-06-07T02:21:34.349Z,0.00
2019-06-07T02:22:33.340Z,0.00
2019-06-07T02:23:33.784Z,0.00
2019-06-07T02:24:36.141Z,0.00
2019-06-07T02:25:43.811Z,0.00
2019-06-07T02:26:34.229Z,0.00
2019-06-07T02:27:33.180Z,0.00
2019-06-07T02:28:44.613Z,0.00
2019-06-07T02:29:34.188Z,0.00
2019-06-07T02:30:46.131Z,0.00
2019-06-07T02:31:39.122Z,0.00
2019-06-07T02:32:36.635Z,0.00
2019-06-07T02:33:39.538Z,0.00
2019-06-07T02:34:38.619Z,0.00
2019-06-07T02:35:40.158Z,0.00
2019-06-07T02:36:40.958Z,0.00
2019-06-07T02:37:36.759Z,0.00
2019-06-07T02:38:37.163Z,0.00
2019-06-07T02:39:38.234Z,0.00
2019-06-07T02:40:37.130Z,0.00
2019-06-07T02:41:39.239Z,0.00
2019-06-07T02:42:36.635Z,0.00
2019-06-07T02:43:36.867Z,0.00
2019-06-07T02:44:38.518Z,0.00
2019-06-07T02:45:42.158Z,0.00
2019-06-07T02:46:44.930Z,0.00
2019-06-07T02:47:37.931Z,0.00
2019-06-07T02:48:39.559Z,0.00
2019-06-07T02:49:40.473Z,0.00
2019-06-07T02:50:37.955Z,0.00
2019-06-07T02:51:41.158Z,0.00
2019-06-07T02:52:39.904Z,0.00
2019-06-07T02:53:39.982Z,0.00
2019-06-07T02:54:38.995Z,0.00
2019-06-07T02:55:57.306Z,0.00
2019-06-07T02:56:44.891Z,0.00
2019-06-07T02:57:39.940Z,0.00
2019-06-07T02:58:38.395Z,0.00
2019-06-07T02:59:59.714Z,0.00
2019-06-07T03:00:58.778Z,0.00
2019-06-07T03:01:41.196Z,5.62
2019-06-07T03:02:40.788Z,5.62
2019-06-07T03:03:38.916Z,5.62
2019-06-07T03:04:40.813Z,5.62
2019-06-07T03:05:36.362Z,5.62
2019-06-07T03:06:39.305Z,5.62
2019-06-07T03:07:39.033Z,5.62
2019-06-07T03:08:36.516Z,5.62
2019-06-07T03:09:35.054Z,5.62
2019-06-07T03:10:34.795Z,5.62
2019-06-07T03:11:36.920Z,11.25
2019-06-07T03:12:35.467Z,11.25
2019-06-07T03:13:34.898Z,11.25
2019-06-07T03:14:33.900Z,11.25
2019-06-07T03:15:42.763Z,11.25
2019-06-07T03:16:37.037Z,11.25
2019-06-07T03:17:37.819Z,11.25
2019-06-07T03:18:34.418Z,11.25
2019-06-07T03:19:37.334Z,16.88
2019-06-07T03:20:35.113Z,16.88
2019-06-07T03:21:33.761Z,16.88
2019-06-07T03:22:35.092Z,16.88
2019-06-07T03:23:34.401Z,16.88
2019-06-07T03:24:35.224Z,16.88
2019-06-07T03:25:35.699Z,16.88
2019-06-07T03:26:42.412Z,16.88
2019-06-07T03:27:41.496Z,16.88
2019-06-07T03:28:36.099Z,22.50
2019-06-07T03:29:34.431Z,22.50
2019-06-07T03:30:42.920Z,22.50
2019-06-07T03:31:41.619Z,22.50
2019-06-07T03:32:36.914Z,22.50
2019-06-07T03:33:41.443Z,22.50
2019-06-07T03:34:40.481Z,22.50
2019-06-07T03:35:35.293Z,22.50
2019-06-07T03:36:34.807Z,28.12
2019-06-07T03:37:37.570Z,28.12
2019-06-07T03:38:35.259Z,28.12
2019-06-07T03:39:33.767Z,28.12
2019-06-07T03:40:36.893Z,28.12
2019-06-07T03:41:44.821Z,28.12
2019-06-07T03:42:34.849Z,28.12
2019-06-07T03:43:37.767Z,28.12
2019-06-07T03:44:36.388Z,28.12
2019-06-07T03:45:36.107Z,28.12
2019-06-07T03:46:37.014Z,28.12
2019-06-07T03:47:36.499Z,33.75
2019-06-07T03:48:36.356Z,33.75
2019-06-07T03:49:38.797Z,33.75
2019-06-07T03:50:36.163Z,33.75
2019-06-07T03:51:35.676Z,33.75
2019-06-07T03:52:35.541Z,33.75
2019-06-07T03:53:34.826Z,33.75
2019-06-07T03:54:34.848Z,33.75
2019-06-07T03:55:37.733Z,33.75
2019-06-07T03:56:35.327Z,33.75
2019-06-07T03:58:23.882Z,33.75
2019-06-07T03:58:44.636Z,39.38
2019-06-07T03:59:38.674Z,39.38
2019-06-07T04:00:36.645Z,39.38
2019-06-07T04:01:34.888Z,39.38
2019-06-07T04:02:33.907Z,39.38
2019-06-07T04:03:42.702Z,39.38
2019-06-07T04:04:36.956Z,39.38
2019-06-07T04:05:38.627Z,39.38
2019-06-07T04:06:36.159Z,39.38
2019-06-07T04:07:36.089Z,39.38
2019-06-07T04:08:34.469Z,39.38
2019-06-07T04:09:38.361Z,39.38
2019-06-07T04:10:48.305Z,45.00
2019-06-07T04:11:34.987Z,45.00
2019-06-07T04:12:38.624Z,45.00
2019-06-07T04:13:36.733Z,45.00
2019-06-07T04:14:32.865Z,45.00
2019-06-07T04:15:34.465Z,45.00
2019-06-07T04:16:38.002Z,45.00
2019-06-07T04:17:34.648Z,45.00
2019-06-07T04:18:33.052Z,45.00
2019-06-07T04:19:34.755Z,45.00
2019-06-07T04:20:34.558Z,45.00
2019-06-07T04:21:34.519Z,45.00
2019-06-07T04:22:35.710Z,45.00
2019-06-07T04:23:35.872Z,50.62
2019-06-07T04:24:36.519Z,50.62
2019-06-07T04:25:36.763Z,50.62
2019-06-07T04:26:34.598Z,50.62
2019-06-07T04:27:33.075Z,50.62
2019-06-07T04:29:27.391Z,50.62
2019-06-07T04:29:47.313Z,50.62
2019-06-07T04:30:36.496Z,50.62
2019-06-07T04:31:32.660Z,50.62
2019-06-07T04:32:33.734Z,50.62
2019-06-07T04:33:34.082Z,50.62
2019-06-07T04:34:37.476Z,50.62
2019-06-07T04:35:34.393Z,56.25
2019-06-07T04:36:47.438Z,56.25
2019-06-07T04:37:33.507Z,56.25
2019-06-07T04:38:32.841Z,56.25
2019-06-07T04:39:33.987Z,56.25
2019-06-07T04:40:33.503Z,56.25
2019-06-07T04:41:33.447Z,56.25
2019-06-07T04:42:34.965Z,56.25
2019-06-07T04:43:33.541Z,56.25
2019-06-07T04:44:34.253Z,56.25
2019-06-07T04:45:36.283Z,56.25
2019-06-07T04:46:35.210Z,56.25
2019-06-07T04:47:33.871Z,56.25
2019-06-07T04:48:33.293Z,56.25
2019-06-07T04:49:33.516Z,56.25
2019-06-07T04:50:34.232Z,61.88
2019-06-07T04:51:32.373Z,61.88
2019-06-07T04:52:33.462Z,61.88
2019-06-07T04:53:35.315Z,61.88
2019-06-07T04:54:34.697Z,61.88
2019-06-07T04:55:31.646Z,61.88
2019-06-07T04:56:33.820Z,61.88
2019-06-07T04:57:34.819Z,61.88
2019-06-07T04:58:31.554Z,61.88
2019-06-07T05:00:04.264Z,61.88
2019-06-07T05:00:54.153Z,61.88
2019-06-07T05:01:34.355Z,61.88
2019-06-07T05:02:32.058Z,67.50
2019-06-07T05:03:36.065Z,67.50
2019-06-07T05:04:33.177Z,67.50
2019-06-07T05:05:31.989Z,67.50
2019-06-07T05:06:34.903Z,67.50
2019-06-07T05:07:32.954Z,67.50
2019-06-07T05:08:33.326Z,67.50
2019-06-07T05:09:32.690Z,67.50
2019-06-07T05:10:35.130Z,67.50
2019-06-07T05:11:33.918Z,67.50
2019-06-07T05:12:32.695Z,67.50
2019-06-07T05:13:35.292Z,67.50
2019-06-07T05:14:33.199Z,73.12
2019-06-07T05:15:32.064Z,73.12
2019-06-07T05:16:37.938Z,73.12
2019-06-07T05:17:34.611Z,73.12
2019-06-07T05:18:33.721Z,73.12
2019-06-07T05:19:35.199Z,73.12
2019-06-07T05:20:34.160Z,73.12
2019-06-07T05:21:52.902Z,73.12
2019-06-07T05:22:34.929Z,73.12
2019-06-07T05:24:37.664Z,73.12
2019-06-07T05:25:35.749Z,73.12
2019-06-07T05:26:35.901Z,73.12
2019-06-07T05:27:34.333Z,73.12
2019-06-07T05:28:35.762Z,73.12
2019-06-07T05:29:36.770Z,73.12
2019-06-07T05:31:41.372Z,73.12
2019-06-07T05:32:32.962Z,73.12
2019-06-07T05:33:36.378Z,73.12
2019-06-07T05:34:34.562Z,73.12
2019-06-07T05:35:33.097Z,73.12
2019-06-07T05:36:31.536Z,73.12
2019-06-07T05:37:33.917Z,73.12
2019-06-07T05:38:31.216Z,73.12
2019-06-07T05:39:32.125Z,73.12
2019-06-07T05:40:32.951Z,73.12
2019-06-07T05:41:32.321Z,73.12
2019-06-07T05:42:32.126Z,78.75
2019-06-07T05:43:35.016Z,78.75
2019-06-07T05:44:32.116Z,78.75
2019-06-07T05:45:32.334Z,78.75
2019-06-07T05:46:33.904Z,78.75
2019-06-07T05:47:32.078Z,78.75
2019-06-07T05:48:31.793Z,78.75
2019-06-07T05:49:32.935Z,78.75
2019-06-07T05:50:43.921Z,78.75
2019-06-07T05:51:32.276Z,78.75
2019-06-07T05:52:32.834Z,78.75
2019-06-07T05:53:31.727Z,78.75
2019-06-07T05:54:30.991Z,84.38
2019-06-07T05:55:31.015Z,84.38
2019-06-07T05:56:31.009Z,84.38
2019-06-07T05:57:31.049Z,84.38
2019-06-07T05:58:30.957Z,84.38
2019-06-07T05:59:30.972Z,84.38
2019-06-07T06:00:30.948Z,84.38
2019-06-07T06:01:45.050Z,84.38
2019-06-07T06:02:34.645Z,84.38
2019-06-07T06:03:31.868Z,84.38
2019-06-07T06:04:30.909Z,84.38
2019-06-07T06:05:36.452Z,90.00
2019-06-07T06:06:31.908Z,90.00
2019-06-07T06:07:30.842Z,90.00
2019-06-07T06:08:30.933Z,90.00
2019-06-07T06:09:30.815Z,90.00
2019-06-07T06:10:30.791Z,90.00
2019-06-07T06:11:45.921Z,90.00
2019-06-07T06:12:35.514Z,90.00
2019-06-07T06:13:31.901Z,90.00
2019-06-07T06:14:30.770Z,90.00
2019-06-07T06:15:42.278Z,95.62
2019-06-07T06:16:31.809Z,90.00
2019-06-07T06:17:30.761Z,95.62
2019-06-07T06:18:30.790Z,101.25
2019-06-07T06:19:30.906Z,95.62
2019-06-07T06:20:33.131Z,95.62
2019-06-07T06:21:31.699Z,95.62
2019-06-07T06:22:30.710Z,95.62
2019-06-07T06:23:30.652Z,95.62
2019-06-07T06:24:30.731Z,101.25
2019-06-07T06:25:34.503Z,90.00
2019-06-07T06:26:31.277Z,101.25
2019-06-07T06:28:03.324Z,101.25
2019-06-07T06:28:32.264Z,101.25
2019-06-07T06:29:31.233Z,101.25
2019-06-07T06:30:33.276Z,106.88
2019-06-07T06:31:32.194Z,106.88
2019-06-07T06:32:41.976Z,106.88
2019-06-07T06:33:34.824Z,106.88
2019-06-07T06:34:30.549Z,106.88
2019-06-07T06:35:30.618Z,106.88
2019-06-07T06:36:30.611Z,106.88
2019-06-07T06:37:30.706Z,106.88
2019-06-07T06:38:31.474Z,106.88
2019-06-07T06:39:30.725Z,112.50
2019-06-07T06:40:30.525Z,112.50
2019-06-07T06:41:30.834Z,112.50
2019-06-07T06:42:30.667Z,112.50
2019-06-07T06:43:30.791Z,118.12
2019-06-07T06:44:30.473Z,112.50
2019-06-07T06:45:30.464Z,118.12
2019-06-07T06:46:38.754Z,118.12
2019-06-07T06:47:31.428Z,118.12
2019-06-07T06:48:30.487Z,118.12
2019-06-07T06:49:30.568Z,118.12
2019-06-07T06:50:30.467Z,118.12
2019-06-07T06:51:30.387Z,123.75
2019-06-07T06:52:30.397Z,123.75
2019-06-07T06:53:30.442Z,123.75
2019-06-07T06:54:40.992Z,123.75
2019-06-07T06:55:31.446Z,123.75
2019-06-07T06:56:30.314Z,123.75
2019-06-07T06:57:30.346Z,123.75
2019-06-07T06:59:18.712Z,123.75
2019-06-07T06:59:39.179Z,129.38
2019-06-07T07:00:43.667Z,129.38
2019-06-07T07:01:31.428Z,129.38
2019-06-07T07:02:30.307Z,146.25
2019-06-07T07:03:56.768Z,146.25
2019-06-07T07:04:31.768Z,146.25
2019-06-07T07:05:30.256Z,146.25
2019-06-07T07:06:30.208Z,151.88
2019-06-07T07:07:30.485Z,78.75
2019-06-07T07:08:30.239Z,78.75
2019-06-07T07:09:30.184Z,78.75
2019-06-07T07:10:30.282Z,78.75
2019-06-07T07:11:30.206Z,84.38
2019-06-07T07:12:30.187Z,84.38
2019-06-07T07:13:30.290Z,84.38
2019-06-07T07:14:30.160Z,84.38
2019-06-07T07:15:30.149Z,84.38
2019-06-07T07:16:30.163Z,90.00
2019-06-07T07:17:47.786Z,90.00
2019-06-07T07:18:31.240Z,90.00
2019-06-07T07:19:30.108Z,90.00
2019-06-07T07:20:30.210Z,90.00
2019-06-07T07:21:30.164Z,95.62
2019-06-07T07:22:30.195Z,95.62
2019-06-07T07:23:30.128Z,95.62
2019-06-07T07:24:30.147Z,95.62
2019-06-07T07:25:30.129Z,101.25
2019-06-07T07:26:30.056Z,101.25
2019-06-07T07:27:30.033Z,101.25
2019-06-07T07:28:30.001Z,101.25
2019-06-07T07:29:30.019Z,101.25
2019-06-07T07:30:36.495Z,106.88
2019-06-07T07:31:30.951Z,106.88
2019-06-07T07:32:30.407Z,106.88
2019-06-07T07:34:23.984Z,106.88
2019-06-07T07:34:35.443Z,106.88
2019-06-07T07:35:31.138Z,112.50
2019-06-07T07:36:39.562Z,112.50
2019-06-07T07:37:30.973Z,112.50
2019-06-07T07:38:29.989Z,112.50
2019-06-07T07:39:29.897Z,112.50
2019-06-07T07:41:30.245Z,112.50
2019-06-07T07:41:30.935Z,112.50
2019-06-07T07:42:29.855Z,112.50
2019-06-07T07:43:29.892Z,112.50
2019-06-07T07:44:29.833Z,112.50
2019-06-07T07:45:30.569Z,118.12
2019-06-07T07:46:30.547Z,118.12
2019-06-07T07:47:29.886Z,123.75
2019-06-07T07:48:30.114Z,123.75
2019-06-07T07:49:29.774Z,123.75
2019-06-07T07:50:29.808Z,123.75
2019-06-07T07:51:29.789Z,129.38
2019-06-07T07:52:33.402Z,129.38
2019-06-07T07:53:47.585Z,129.38
2019-06-07T07:54:31.142Z,129.38
2019-06-07T07:55:29.803Z,135.00
2019-06-07T07:56:29.828Z,135.00
2019-06-07T07:57:29.717Z,135.00
2019-06-07T07:58:29.798Z,140.62
2019-06-07T07:59:41.933Z,140.62
2019-06-07T08:00:52.311Z,146.25
2019-06-07T08:01:30.627Z,151.88
2019-06-07T08:02:29.660Z,157.50
2019-06-07T08:03:29.628Z,163.12
2019-06-07T08:05:13.061Z,174.38
2019-06-07T08:05:42.313Z,174.38
2019-06-07T08:06:30.622Z,168.75
2019-06-07T08:07:30.679Z,185.62
2019-06-07T08:08:29.562Z,191.25
2019-06-07T08:09:29.592Z,202.50
2019-06-07T08:10:29.584Z,208.12
2019-06-07T08:11:29.638Z,219.38
2019-06-07T08:12:29.531Z,230.62
2019-06-07T08:13:29.548Z,247.50
2019-06-07T08:14:29.565Z,264.38
2019-06-07T08:15:29.481Z,292.50
2019-06-07T08:16:29.497Z,315.00
2019-06-07T08:17:29.591Z,331.88
2019-06-07T08:18:29.471Z,348.75
2019-06-07T08:19:29.490Z,405.00
2019-06-07T08:20:29.468Z,523.12
2019-06-07T08:21:29.422Z,495.00
2019-06-07T08:22:29.468Z,343.12
2019-06-07T08:23:29.552Z,298.12
2019-06-07T08:24:29.441Z,281.25
2019-06-07T08:25:29.433Z,286.88
2019-06-07T08:26:29.473Z,286.88
2019-06-07T08:27:29.398Z,281.25
2019-06-07T08:28:29.414Z,281.25
2019-06-07T08:29:44.342Z,292.50
2019-06-07T08:31:30.334Z,286.88
2019-06-07T08:32:29.314Z,286.88
2019-06-07T08:33:29.336Z,292.50
2019-06-07T08:34:29.293Z,298.12
2019-06-07T08:36:05.663Z,298.12
2019-06-07T08:36:41.462Z,309.38
2019-06-07T08:38:13.916Z,320.62
2019-06-07T08:38:46.867Z,331.88
2019-06-07T08:39:30.299Z,331.88
2019-06-07T08:40:29.473Z,354.38
2019-06-07T08:41:29.304Z,466.88
2019-06-07T08:42:37.077Z,686.25
2019-06-07T08:43:30.241Z,877.50
2019-06-07T08:44:29.245Z,911.25
2019-06-07T08:45:29.225Z,933.75
2019-06-07T08:46:29.216Z,1485.00
2019-06-07T08:47:29.261Z,1530.00
2019-06-07T08:48:30.404Z,1451.25
2019-06-07T08:49:29.167Z,1321.88
2019-06-07T08:50:29.200Z,1186.88
2019-06-07T08:51:29.179Z,1271.25
2019-06-07T08:52:29.125Z,1327.50
2019-06-07T08:53:29.298Z,1608.75
2019-06-07T08:54:29.117Z,1575.00
2019-06-07T08:55:29.135Z,1608.75
2019-06-07T08:56:29.137Z,1732.50
2019-06-07T08:57:29.086Z,1805.62
2019-06-07T08:58:29.054Z,1783.12
2019-06-07T08:59:29.148Z,1828.12
2019-06-07T09:00:45.293Z,1828.12
2019-06-07T09:01:30.067Z,1833.75
2019-06-07T09:02:29.070Z,1867.50
2019-06-07T09:03:29.047Z,1845.00
2019-06-07T09:04:29.005Z,1833.75
2019-06-07T09:05:29.150Z,1861.88
2019-06-07T09:07:30.015Z,1839.38
2019-06-07T09:08:30.744Z,1850.62
2019-06-07T09:09:28.948Z,1890.00
2019-06-07T09:10:29.084Z,1951.88
2019-06-07T09:11:29.139Z,1923.75
2019-06-07T09:12:28.968Z,1895.62
2019-06-07T09:13:28.906Z,1918.12
2019-06-07T09:14:28.952Z,1963.12
2019-06-07T09:15:28.923Z,1935.00
2019-06-07T09:16:28.923Z,1884.38
2019-06-07T09:17:28.972Z,1884.38
2019-06-07T09:18:42.849Z,1918.12
2019-06-07T09:19:29.894Z,1935.00
2019-06-07T09:20:36.726Z,1963.12
2019-06-07T09:21:29.902Z,2025.00
2019-06-07T09:22:28.844Z,2008.12
2019-06-07T09:23:29.010Z,2019.38
2019-06-07T09:24:28.851Z,2047.50
2019-06-07T09:25:28.804Z,2064.38
2019-06-07T09:26:28.813Z,2070.00
2019-06-07T09:27:28.860Z,2070.00
2019-06-07T09:28:28.959Z,2070.00
2019-06-07T09:29:28.868Z,2081.25
2019-06-07T09:30:28.820Z,2081.25
2019-06-07T09:31:51.243Z,2036.25
2019-06-07T09:32:29.764Z,2070.00
2019-06-07T09:33:28.769Z,2092.50
2019-06-07T09:34:28.911Z,2092.50
2019-06-07T09:35:28.840Z,1440.00
2019-06-07T09:36:28.705Z,1141.88
2019-06-07T09:38:29.699Z,2092.50
2019-06-07T09:39:28.683Z,2143.12
2019-06-07T09:40:28.645Z,2171.25
2019-06-07T09:41:46.828Z,2193.75
2019-06-07T09:42:29.662Z,2002.50
2019-06-07T09:44:00.611Z,2137.50
2019-06-07T09:44:29.632Z,1383.75
2019-06-07T09:45:28.634Z,2176.88
2019-06-07T09:46:28.614Z,1125.00
2019-06-07T09:47:32.343Z,1288.12
2019-06-07T09:49:09.966Z,1350.00
2019-06-07T09:49:32.486Z,1333.12
2019-06-07T09:50:28.607Z,1243.12
2019-06-07T09:51:28.595Z,2182.50
2019-06-07T09:52:28.547Z,2188.12
2019-06-07T09:53:28.665Z,1805.62
2019-06-07T09:55:03.241Z,2008.12
2019-06-07T09:55:29.846Z,1513.12
2019-06-07T09:56:28.525Z,2328.75
2019-06-07T09:57:28.534Z,2351.25
2019-06-07T09:58:51.309Z,2368.12
2019-06-07T09:59:29.601Z,2413.12
2019-06-07T10:00:43.790Z,2401.88
2019-06-07T10:01:29.459Z,2401.88
2019-06-07T10:02:28.440Z,2385.00
2019-06-07T10:03:28.661Z,2340.00
2019-06-07T10:04:31.476Z,2345.62
2019-06-07T10:05:28.519Z,2351.25
2019-06-07T10:06:28.607Z,2306.25
2019-06-07T10:07:31.633Z,2306.25
2019-06-07T10:11:28.379Z,2446.88
2019-06-07T10:12:28.361Z,2424.38
2019-06-07T10:13:28.419Z,2452.50
2019-06-07T10:14:28.368Z,2441.25
2019-06-07T10:15:28.416Z,2356.88
2019-06-07T10:16:28.422Z,2340.00
2019-06-07T10:17:30.000Z,2255.62
2019-06-07T10:18:28.347Z,1445.62
2019-06-07T10:19:28.340Z,973.12
2019-06-07T10:20:28.274Z,939.38
2019-06-07T10:21:28.275Z,916.88
2019-06-07T10:22:28.363Z,911.25
2019-06-07T10:23:29.088Z,888.75
2019-06-07T10:24:28.286Z,877.50
2019-06-07T10:25:28.219Z,871.88
2019-06-07T10:26:28.274Z,866.25
2019-06-07T10:27:28.235Z,855.00
2019-06-07T10:28:28.329Z,849.38
2019-06-07T10:29:28.230Z,838.12
2019-06-07T10:30:28.203Z,838.12
2019-06-07T10:31:28.225Z,832.50
2019-06-07T10:32:28.199Z,821.25
2019-06-07T10:33:28.170Z,821.25
2019-06-07T10:34:28.281Z,849.38
2019-06-07T10:35:28.273Z,1794.38
2019-06-07T10:36:28.737Z,2767.50
2019-06-07T10:37:28.162Z,3110.62
2019-06-07T10:38:28.144Z,3217.50
2019-06-07T10:39:28.141Z,3200.62
2019-06-07T10:40:28.244Z,3144.38
2019-06-07T10:41:28.115Z,2936.25
2019-06-07T10:42:28.102Z,2480.62
2019-06-07T10:43:28.095Z,1906.88
2019-06-07T10:44:28.083Z,1946.25
2019-06-07T10:45:28.073Z,1726.88
2019-06-07T10:46:28.096Z,2002.50
2019-06-07T10:47:28.055Z,1845.00
2019-06-07T10:48:27.996Z,1788.75
2019-06-07T10:49:28.032Z,1732.50
2019-06-07T10:50:27.976Z,1659.38
2019-06-07T10:51:27.963Z,1265.62
2019-06-07T10:52:28.034Z,1507.50
2019-06-07T10:53:28.013Z,1417.50
2019-06-07T10:54:30.689Z,1237.50
2019-06-07T10:55:27.978Z,905.62
2019-06-07T10:56:27.963Z,916.88
2019-06-07T10:57:27.959Z,703.12
2019-06-07T10:58:28.032Z,675.00
2019-06-07T10:59:27.921Z,663.75
2019-06-07T11:00:27.950Z,658.12
2019-06-07T11:01:27.869Z,652.50
2019-06-07T11:02:27.878Z,635.62
2019-06-07T11:03:27.881Z,613.12
2019-06-07T11:04:27.947Z,624.38
2019-06-07T11:05:27.867Z,607.50
2019-06-07T11:06:27.868Z,596.25
2019-06-07T11:07:27.856Z,596.25
2019-06-07T11:08:27.845Z,579.38
2019-06-07T11:09:27.823Z,579.38
2019-06-07T11:10:27.902Z,573.75
2019-06-07T11:11:27.808Z,585.00
2019-06-07T11:12:27.797Z,579.38
2019-06-07T11:13:27.801Z,601.88
2019-06-07T11:14:27.770Z,596.25
2019-06-07T11:15:27.769Z,556.88
2019-06-07T11:16:27.874Z,579.38
2019-06-07T11:17:27.827Z,590.62
2019-06-07T11:18:27.735Z,579.38
2019-06-07T11:19:27.716Z,573.75
2019-06-07T11:20:27.715Z,579.38
2019-06-07T11:21:27.671Z,579.38
2019-06-07T11:22:27.791Z,590.62
2019-06-07T11:23:27.699Z,590.62
2019-06-07T11:24:27.662Z,590.62
2019-06-07T11:25:27.639Z,596.25
2019-06-07T11:26:27.688Z,596.25
2019-06-07T11:27:27.612Z,601.88
2019-06-07T11:28:27.739Z,601.88
2019-06-07T11:29:27.604Z,607.50
2019-06-07T11:30:27.612Z,607.50
2019-06-07T11:31:27.631Z,601.88
2019-06-07T11:32:27.571Z,607.50
2019-06-07T11:33:27.592Z,607.50
2019-06-07T11:34:27.689Z,618.75
2019-06-07T11:35:27.596Z,613.12
2019-06-07T11:36:27.556Z,590.62
2019-06-07T11:37:27.562Z,562.50
2019-06-07T11:38:27.542Z,556.88
2019-06-07T11:39:27.514Z,545.62
2019-06-07T11:40:34.978Z,540.00
2019-06-07T11:41:28.535Z,540.00
2019-06-07T11:42:27.502Z,528.75
2019-06-07T11:43:27.489Z,523.12
2019-06-07T11:44:27.466Z,511.88
2019-06-07T11:45:27.453Z,511.88
2019-06-07T11:46:27.547Z,500.62
2019-06-07T11:47:27.462Z,495.00
2019-06-07T11:48:27.449Z,489.38
2019-06-07T11:49:27.435Z,489.38
2019-06-07T11:50:27.434Z,483.75
2019-06-07T11:51:27.414Z,478.12
2019-06-07T11:52:27.455Z,472.50
2019-06-07T11:53:27.415Z,483.75
2019-06-07T11:54:27.372Z,478.12
2019-06-07T11:55:27.389Z,483.75
2019-06-07T11:56:27.368Z,472.50
2019-06-07T11:57:27.368Z,472.50
2019-06-07T11:58:27.460Z,472.50
2019-06-07T11:59:27.288Z,466.88
2019-06-07T12:00:27.307Z,461.25
2019-06-07T12:01:27.332Z,450.00
2019-06-07T12:02:27.316Z,450.00
2019-06-07T12:03:27.304Z,450.00
2019-06-07T12:04:34.447Z,450.00
2019-06-07T12:05:28.275Z,438.75
2019-06-07T12:06:27.239Z,438.75
2019-06-07T12:07:27.227Z,433.12
2019-06-07T12:08:27.250Z,438.75
2019-06-07T12:09:28.147Z,433.12
2019-06-07T12:10:39.534Z,433.12
2019-06-07T12:11:28.218Z,433.12
2019-06-07T12:12:27.200Z,433.12
2019-06-07T12:13:27.213Z,427.50
2019-06-07T12:14:27.177Z,421.88
2019-06-07T12:15:27.195Z,421.88
2019-06-07T12:16:27.258Z,421.88
2019-06-07T12:17:27.156Z,416.25
2019-06-07T12:18:27.152Z,421.88
2019-06-07T12:19:27.142Z,416.25
2019-06-07T12:20:27.144Z,416.25
2019-06-07T12:21:27.121Z,410.62
2019-06-07T12:22:27.172Z,410.62
2019-06-07T12:23:27.094Z,405.00
2019-06-07T12:24:27.105Z,405.00
2019-06-07T12:25:27.067Z,399.38
2019-06-07T12:26:27.078Z,405.00
2019-06-07T12:27:27.058Z,399.38
2019-06-07T12:28:27.092Z,399.38
2019-06-07T12:29:27.007Z,399.38
2019-06-07T12:30:28.032Z,399.38
2019-06-07T12:31:27.008Z,393.75
2019-06-07T12:32:27.016Z,399.38
2019-06-07T12:33:26.993Z,399.38
2019-06-07T12:34:27.028Z,399.38
2019-06-07T12:35:26.974Z,393.75
2019-06-07T12:36:26.921Z,399.38
2019-06-07T12:37:42.528Z,393.75
2019-06-07T12:38:27.954Z,399.38
2019-06-07T12:39:26.937Z,393.75
2019-06-07T12:40:32.094Z,393.75
2019-06-07T12:41:27.916Z,388.12
2019-06-07T12:42:26.885Z,393.75
2019-06-07T12:43:26.876Z,393.75
2019-06-07T12:44:26.876Z,399.38
2019-06-07T12:45:43.429Z,399.38
2019-06-07T12:46:28.713Z,399.38
2019-06-07T12:47:26.807Z,393.75
2019-06-07T12:48:26.826Z,388.12
2019-06-07T12:49:26.848Z,388.12
2019-06-07T12:50:41.636Z,376.88
2019-06-07T12:51:27.794Z,382.50